LFMT/MPL METAR and TAF weather

Enter ICAO airport designator
Station Type Date Time Source
LFMT METAR 2020/07/03 14:30 UTC NOAA

LFMT 031430Z AUTO 33018KT 290V360 CAVOK 29/07 Q1015 TEMPO 34020G30KT


Station Type Date Time Source
LFMT Decoded METAR 2020/07/03 14:30 UTC NOAA

Montpellier, France (LFMT) 43-35N 003-58E 6M
Jul 03, 2020 - 10:30 AM EDT / 2020.07.03 1430 UTC
Wind: from the NNW (330 degrees) at 21 MPH (18 KT) (direction variable):0
Visibility: greater than 7 mile(s):0
Temperature: 84 F (29 C)
Dew Point: 44 F (7 C)
Relative Humidity: 24%
Pressure (altimeter): 29.97 in. Hg (1015 hPa)
ob: LFMT 031430Z AUTO 33018KT 290V360 CAVOK 29/07 Q1015 TEMPO 34020G30KT
cycle: 14

Station Type Date Time Source
LFMT TAF 2020/07/03 09:44 UTC NOAA

TAF LFMT 030800Z 0309/0409 31015KT CAVOK
TEMPO 0309/0313 34015G25KT
TEMPO 0313/0319 34020G30KT

Example: see airport list